createdAt,value
2022-08-29T00:01:13.978Z,18.10
2022-08-29T00:03:42.086Z,18.10
2022-08-29T00:06:10.582Z,18.10
2022-08-29T00:08:37.586Z,18.10
2022-08-29T00:11:06.736Z,18.10
2022-08-29T00:13:34.425Z,18.10
2022-08-29T00:16:01.459Z,18.10
2022-08-29T00:18:28.708Z,18.10
2022-08-29T00:20:55.877Z,18.10
2022-08-29T00:23:22.871Z,18.10
2022-08-29T00:25:49.967Z,18.10
2022-08-29T00:28:16.883Z,18.10
2022-08-29T00:30:44.549Z,18.10
2022-08-29T00:33:11.632Z,18.10
2022-08-29T00:35:40.692Z,18.10
2022-08-29T00:38:10.306Z,18.10
2022-08-29T00:40:40.682Z,18.20
2022-08-29T00:43:08.904Z,18.20
2022-08-29T00:45:39.189Z,18.20
2022-08-29T00:48:14.681Z,18.20
2022-08-29T00:50:55.253Z,18.20
2022-08-29T00:53:34.858Z,18.20
2022-08-29T00:56:03.307Z,18.20
2022-08-29T00:58:54.233Z,18.10
2022-08-29T01:01:23.289Z,18.20
2022-08-29T01:03:51.553Z,18.10
2022-08-29T01:06:20.032Z,18.20
2022-08-29T01:08:47.487Z,18.20
2022-08-29T01:11:35.974Z,18.20
2022-08-29T01:14:04.728Z,18.20
2022-08-29T01:16:32.673Z,18.20
2022-08-29T01:19:14.530Z,18.20
2022-08-29T01:21:47.379Z,18.20
2022-08-29T01:24:39.557Z,18.20
2022-08-29T01:27:07.287Z,18.20
2022-08-29T01:29:34.853Z,18.20
2022-08-29T01:32:02.152Z,18.20
2022-08-29T01:34:30.100Z,18.20
2022-08-29T01:37:00.330Z,18.20
2022-08-29T01:39:34.201Z,18.30
2022-08-29T01:42:04.064Z,18.20
2022-08-29T01:44:31.479Z,18.20
2022-08-29T01:47:02.868Z,18.30
2022-08-29T01:49:35.401Z,18.30
2022-08-29T01:52:07.560Z,18.30
2022-08-29T01:54:34.705Z,18.30
2022-08-29T01:57:02.062Z,18.30
2022-08-29T01:59:31.730Z,18.30
2022-08-29T02:02:03.582Z,18.20
2022-08-29T02:04:30.823Z,18.30
2022-08-29T02:06:58.170Z,18.30
2022-08-29T02:09:27.744Z,18.30
2022-08-29T02:11:56.051Z,18.30
2022-08-29T02:14:23.760Z,18.30
2022-08-29T02:16:50.987Z,18.40
2022-08-29T02:19:18.219Z,18.40
2022-08-29T02:21:45.559Z,18.40
2022-08-29T02:24:25.583Z,18.40
2022-08-29T02:26:54.746Z,18.30
2022-08-29T02:29:22.168Z,18.30
2022-08-29T02:31:49.253Z,18.40
2022-08-29T02:34:19.852Z,18.40
2022-08-29T02:36:49.058Z,18.40
2022-08-29T02:39:18.017Z,18.30
2022-08-29T02:41:45.036Z,18.30
2022-08-29T02:44:12.014Z,18.30
2022-08-29T02:46:39.132Z,18.40
2022-08-29T02:49:06.497Z,18.30
2022-08-29T02:51:34.810Z,18.40
2022-08-29T02:54:02.386Z,18.40
2022-08-29T02:56:29.979Z,18.40
2022-08-29T02:58:57.285Z,18.40
2022-08-29T03:01:26.496Z,18.40
2022-08-29T03:03:53.843Z,18.40
2022-08-29T03:06:22.588Z,18.40
2022-08-29T03:08:50.572Z,18.30
2022-08-29T03:11:18.194Z,18.30
2022-08-29T03:13:45.589Z,18.30
2022-08-29T03:16:13.510Z,18.20
2022-08-29T03:18:40.550Z,18.20
2022-08-29T03:21:15.853Z,18.10
2022-08-29T03:23:42.837Z,18.10
2022-08-29T03:26:09.843Z,18.00
2022-08-29T03:28:36.742Z,18.00
2022-08-29T03:31:03.937Z,18.00
2022-08-29T03:33:30.962Z,18.00
2022-08-29T03:35:57.886Z,18.00
2022-08-29T03:38:25.127Z,18.00
2022-08-29T03:40:52.077Z,18.00
2022-08-29T03:43:22.862Z,18.00
2022-08-29T03:45:49.840Z,18.00
2022-08-29T03:48:16.723Z,18.00
2022-08-29T03:50:43.701Z,18.00
2022-08-29T03:53:10.807Z,18.00
2022-08-29T03:55:38.491Z,18.00
2022-08-29T03:58:05.824Z,17.90
2022-08-29T04:00:32.857Z,17.90
2022-08-29T04:03:00.185Z,17.90
2022-08-29T04:05:27.270Z,17.90
2022-08-29T04:07:59.281Z,17.90
2022-08-29T04:10:31.911Z,17.80
2022-08-29T04:12:59.614Z,17.80
2022-08-29T04:15:28.494Z,17.80
2022-08-29T04:17:58.576Z,17.80
2022-08-29T04:20:29.559Z,17.70
2022-08-29T04:22:58.020Z,17.70
2022-08-29T04:25:26.970Z,17.70
2022-08-29T04:27:55.465Z,17.70
2022-08-29T04:30:24.891Z,17.70
2022-08-29T04:32:52.514Z,17.70
2022-08-29T04:35:20.029Z,17.80
2022-08-29T04:37:47.324Z,17.80
2022-08-29T04:40:16.842Z,17.80
2022-08-29T04:42:45.135Z,17.80
2022-08-29T04:45:14.394Z,17.80
2022-08-29T04:47:42.714Z,17.80
2022-08-29T04:50:13.297Z,17.80
2022-08-29T04:52:40.949Z,17.70
2022-08-29T04:55:08.740Z,17.70
2022-08-29T04:57:37.016Z,17.70
2022-08-29T05:00:07.622Z,17.70
2022-08-29T05:02:34.646Z,17.70
2022-08-29T05:05:02.186Z,17.70
2022-08-29T05:07:28.988Z,17.70
2022-08-29T05:09:58.826Z,17.70
2022-08-29T05:12:29.292Z,17.70
2022-08-29T05:14:56.683Z,17.60
2022-08-29T05:17:25.847Z,17.60
2022-08-29T05:19:53.355Z,17.60
2022-08-29T05:22:21.313Z,17.60
2022-08-29T05:24:49.677Z,17.60
2022-08-29T05:27:19.763Z,17.70
2022-08-29T05:29:49.008Z,17.60
2022-08-29T05:32:17.556Z,17.60
2022-08-29T05:34:47.901Z,17.60
2022-08-29T05:37:19.400Z,17.60
2022-08-29T05:39:47.380Z,17.60
2022-08-29T05:42:17.104Z,17.70
2022-08-29T05:44:44.476Z,17.70
2022-08-29T05:47:13.515Z,17.70
2022-08-29T05:49:43.037Z,17.70
2022-08-29T05:52:11.374Z,17.60
2022-08-29T05:54:40.957Z,17.60
2022-08-29T05:57:11.102Z,17.60
2022-08-29T05:59:39.285Z,17.70
2022-08-29T06:02:08.485Z,17.70
2022-08-29T06:04:35.967Z,17.80
2022-08-29T06:07:04.225Z,17.70
2022-08-29T06:09:31.395Z,17.80
2022-08-29T06:11:58.671Z,17.80
2022-08-29T06:14:26.215Z,17.80
2022-08-29T06:16:54.705Z,17.80
2022-08-29T06:19:22.965Z,17.90
2022-08-29T06:21:50.259Z,17.80
2022-08-29T06:24:17.959Z,17.90
2022-08-29T06:26:45.471Z,17.80
2022-08-29T06:29:14.734Z,17.90
2022-08-29T06:31:42.236Z,18.00
2022-08-29T06:34:09.861Z,18.00
2022-08-29T06:36:37.850Z,18.00
2022-08-29T06:39:07.759Z,18.00
2022-08-29T06:41:35.609Z,18.00
2022-08-29T06:44:03.757Z,17.90
2022-08-29T06:46:34.584Z,17.90
2022-08-29T06:49:04.271Z,17.90
2022-08-29T06:51:33.252Z,17.90
2022-08-29T06:54:02.272Z,17.90
2022-08-29T06:56:29.849Z,17.80
2022-08-29T06:58:56.950Z,17.80
2022-08-29T07:01:24.275Z,17.80
2022-08-29T07:03:54.281Z,17.80
2022-08-29T07:06:21.685Z,17.90
2022-08-29T07:08:55.230Z,17.80
2022-08-29T07:11:25.062Z,17.90
2022-08-29T07:13:52.161Z,17.90
2022-08-29T07:16:19.666Z,18.00
2022-08-29T07:18:47.256Z,18.10
2022-08-29T07:21:20.659Z,18.10
2022-08-29T07:23:52.091Z,18.10
2022-08-29T07:26:24.975Z,18.20
2022-08-29T07:28:55.534Z,18.20
2022-08-29T07:31:23.015Z,18.20
2022-08-29T07:33:59.710Z,18.20
2022-08-29T07:36:34.364Z,18.30
2022-08-29T07:39:02.130Z,18.40
2022-08-29T07:41:29.243Z,18.40
2022-08-29T07:43:56.116Z,18.40
2022-08-29T07:46:25.518Z,18.40
2022-08-29T07:48:52.999Z,18.40
2022-08-29T07:51:22.990Z,18.40
2022-08-29T07:53:50.959Z,18.40
2022-08-29T07:56:22.873Z,18.40
2022-08-29T07:58:55.369Z,18.50
2022-08-29T08:01:22.768Z,18.50
2022-08-29T08:03:51.242Z,18.60
2022-08-29T08:06:20.967Z,18.60
2022-08-29T08:08:48.577Z,18.60
2022-08-29T08:11:16.518Z,18.60
2022-08-29T08:13:44.542Z,18.70
2022-08-29T08:16:14.765Z,18.70
2022-08-29T08:18:43.286Z,18.70
2022-08-29T08:21:11.321Z,18.70
2022-08-29T08:23:38.722Z,18.70
2022-08-29T08:26:06.698Z,18.70
2022-08-29T08:28:33.613Z,18.70
2022-08-29T08:31:05.915Z,18.80
2022-08-29T08:33:35.504Z,18.90
2022-08-29T08:36:04.104Z,18.90
2022-08-29T08:38:31.581Z,18.90
2022-08-29T08:41:12.979Z,18.90
2022-08-29T08:43:49.676Z,18.90
2022-08-29T08:46:18.138Z,19.00
2022-08-29T08:48:48.583Z,19.00
2022-08-29T08:51:27.485Z,19.10
2022-08-29T08:53:58.283Z,19.10
2022-08-29T08:56:31.335Z,19.10
2022-08-29T08:59:07.488Z,19.10
2022-08-29T09:01:45.313Z,19.20
2022-08-29T09:04:44.130Z,19.20
2022-08-29T09:07:23.071Z,19.30
2022-08-29T09:10:03.421Z,19.30
2022-08-29T09:12:36.058Z,19.30
2022-08-29T09:15:14.229Z,19.40
2022-08-29T09:17:44.065Z,19.40
2022-08-29T09:20:16.008Z,19.50
2022-08-29T09:22:49.616Z,19.40
2022-08-29T09:25:16.782Z,19.50
2022-08-29T09:27:43.637Z,19.50
2022-08-29T09:30:18.178Z,19.40
2022-08-29T09:33:01.765Z,19.50
2022-08-29T09:35:50.226Z,19.50
2022-08-29T09:38:17.066Z,19.60
2022-08-29T09:40:44.003Z,19.60
2022-08-29T09:43:39.530Z,19.60
2022-08-29T09:46:18.710Z,19.60
2022-08-29T09:48:50.672Z,19.70
2022-08-29T09:51:24.493Z,19.70
2022-08-29T09:54:10.214Z,19.80
2022-08-29T09:56:39.319Z,19.80
2022-08-29T09:59:22.312Z,19.90
2022-08-29T10:01:49.773Z,19.90
2022-08-29T10:04:38.213Z,19.90
2022-08-29T10:07:33.878Z,20.00
2022-08-29T10:10:22.849Z,20.00
2022-08-29T10:13:12.437Z,20.00
2022-08-29T10:15:51.709Z,20.00
2022-08-29T10:18:52.595Z,20.10
2022-08-29T10:21:47.151Z,20.10
2022-08-29T10:24:39.027Z,20.10
2022-08-29T10:27:31.142Z,20.10
2022-08-29T10:30:04.133Z,20.20
2022-08-29T10:32:55.999Z,20.20
2022-08-29T10:35:31.401Z,20.20
2022-08-29T10:38:27.917Z,20.20
2022-08-29T10:41:15.498Z,20.20
2022-08-29T10:44:21.392Z,20.10
2022-08-29T10:47:23.024Z,20.00
2022-08-29T10:49:58.744Z,20.00
2022-08-29T10:52:53.638Z,19.90
2022-08-29T10:55:48.331Z,19.90
2022-08-29T10:58:51.119Z,20.00
2022-08-29T11:01:29.428Z,20.00
2022-08-29T11:04:08.612Z,20.10
2022-08-29T11:06:41.483Z,20.10
2022-08-29T11:09:14.623Z,20.20
2022-08-29T11:12:00.575Z,20.20
2022-08-29T11:14:49.000Z,20.20
2022-08-29T11:17:18.779Z,20.20
2022-08-29T11:20:11.695Z,20.20
2022-08-29T11:22:50.337Z,20.30
2022-08-29T11:25:20.145Z,20.30
2022-08-29T11:28:03.562Z,20.40
2022-08-29T11:30:49.645Z,20.40
2022-08-29T11:33:25.988Z,20.40
2022-08-29T11:36:05.139Z,20.40
2022-08-29T11:38:53.262Z,20.40
2022-08-29T11:41:29.127Z,20.40
2022-08-29T11:44:11.730Z,20.40
2022-08-29T11:46:45.410Z,20.50
2022-08-29T11:49:33.799Z,20.50
2022-08-29T11:52:18.874Z,20.50
2022-08-29T11:55:16.053Z,20.50
2022-08-29T11:57:48.904Z,20.50
2022-08-29T12:00:45.415Z,20.50
2022-08-29T12:03:35.210Z,20.60
2022-08-29T12:06:21.425Z,20.60
2022-08-29T12:09:13.166Z,20.70
2022-08-29T12:11:59.099Z,20.70
2022-08-29T12:14:45.782Z,20.70
2022-08-29T12:17:31.945Z,20.80
2022-08-29T12:20:10.128Z,20.80
2022-08-29T12:22:55.475Z,20.90
2022-08-29T12:25:28.578Z,20.80
2022-08-29T12:28:31.149Z,20.80
2022-08-29T12:30:58.143Z,20.70
2022-08-29T12:34:03.995Z,20.70
2022-08-29T12:36:55.292Z,20.80
2022-08-29T12:39:41.936Z,20.80
2022-08-29T12:42:30.478Z,20.80
2022-08-29T12:45:16.602Z,20.80
2022-08-29T12:47:51.503Z,20.80
2022-08-29T12:50:28.382Z,20.80
2022-08-29T12:53:07.097Z,20.70
2022-08-29T12:55:40.624Z,20.70
2022-08-29T12:58:08.680Z,20.80
2022-08-29T13:00:35.867Z,20.80
2022-08-29T13:03:04.317Z,20.80
2022-08-29T13:05:39.850Z,20.80
2022-08-29T13:08:17.225Z,20.80
2022-08-29T13:11:01.083Z,20.80
2022-08-29T13:13:29.529Z,20.80
2022-08-29T13:16:01.358Z,20.80
2022-08-29T13:18:29.926Z,20.80
2022-08-29T13:21:05.658Z,20.80
2022-08-29T13:23:37.153Z,20.70
2022-08-29T13:26:22.480Z,20.70
2022-08-29T13:29:04.388Z,20.80
2022-08-29T13:31:36.303Z,20.90
2022-08-29T13:34:18.020Z,20.90
2022-08-29T13:37:02.235Z,20.90
2022-08-29T13:39:36.995Z,20.80
2022-08-29T13:42:15.109Z,20.90
2022-08-29T13:44:45.025Z,20.90
2022-08-29T13:47:19.659Z,20.90
2022-08-29T13:49:46.670Z,20.80
2022-08-29T13:52:14.938Z,20.80
2022-08-29T13:54:42.512Z,20.90
2022-08-29T13:57:22.135Z,21.00
2022-08-29T13:59:50.960Z,21.10
2022-08-29T14:02:18.790Z,21.10
2022-08-29T14:04:50.194Z,21.10
2022-08-29T14:07:29.581Z,21.10
2022-08-29T14:09:57.110Z,21.00
2022-08-29T14:12:33.363Z,21.10
2022-08-29T14:15:05.359Z,21.00
2022-08-29T14:17:35.221Z,21.10
2022-08-29T14:20:02.374Z,21.00
2022-08-29T14:22:29.411Z,21.00
2022-08-29T14:25:04.031Z,20.90
2022-08-29T14:27:43.580Z,20.80
2022-08-29T14:30:12.778Z,20.80
2022-08-29T14:32:39.736Z,20.70
2022-08-29T14:35:08.134Z,20.70
2022-08-29T14:37:36.745Z,20.70
2022-08-29T14:40:07.248Z,20.70
2022-08-29T14:42:34.364Z,20.70
2022-08-29T14:45:01.343Z,20.70
2022-08-29T14:47:28.417Z,20.80
2022-08-29T14:49:55.325Z,20.80
2022-08-29T14:52:22.407Z,20.80
2022-08-29T14:54:49.494Z,20.80
2022-08-29T14:57:16.488Z,20.80
2022-08-29T14:59:43.356Z,20.90
2022-08-29T15:02:10.492Z,20.90
2022-08-29T15:04:39.920Z,20.90
2022-08-29T15:07:09.676Z,20.90
2022-08-29T15:09:41.827Z,20.80
2022-08-29T15:12:09.487Z,20.70
2022-08-29T15:14:36.500Z,20.70
2022-08-29T15:17:04.804Z,20.70
2022-08-29T15:20:15.832Z,20.60
2022-08-29T15:22:19.410Z,20.60
2022-08-29T15:24:46.714Z,20.70
2022-08-29T15:27:13.705Z,20.70
2022-08-29T15:29:40.866Z,20.80
2022-08-29T15:32:08.201Z,20.70
2022-08-29T15:34:36.105Z,20.70
2022-08-29T15:37:03.365Z,20.70
2022-08-29T15:39:30.326Z,20.70
2022-08-29T15:42:00.367Z,20.60
2022-08-29T15:44:28.506Z,20.60
2022-08-29T15:46:56.922Z,20.60
2022-08-29T15:49:25.568Z,20.50
2022-08-29T15:51:53.262Z,20.50
2022-08-29T15:54:21.285Z,20.40
2022-08-29T15:56:48.311Z,20.40
2022-08-29T15:59:15.781Z,20.30
2022-08-29T16:01:45.450Z,20.30
2022-08-29T16:04:13.730Z,20.20
2022-08-29T16:06:40.912Z,20.30
2022-08-29T16:09:15.580Z,20.40
2022-08-29T16:11:48.660Z,20.40
2022-08-29T16:14:57.601Z,20.40
2022-08-29T16:17:05.809Z,20.30
2022-08-29T16:19:37.303Z,20.40
2022-08-29T16:22:08.011Z,20.40
2022-08-29T16:24:34.989Z,20.40
2022-08-29T16:27:01.926Z,20.40
2022-08-29T16:29:29.382Z,20.30
2022-08-29T16:32:00.456Z,20.30
2022-08-29T16:34:28.454Z,20.20
2022-08-29T16:36:57.035Z,20.20
2022-08-29T16:39:23.984Z,20.30
2022-08-29T16:41:51.081Z,20.20
2022-08-29T16:44:18.051Z,20.20
2022-08-29T16:46:45.081Z,20.20
2022-08-29T16:49:12.240Z,20.10
2022-08-29T16:51:39.265Z,20.10
2022-08-29T16:54:06.294Z,20.00
2022-08-29T16:56:33.295Z,20.00
2022-08-29T16:59:00.370Z,20.00
2022-08-29T17:01:38.087Z,20.00
2022-08-29T17:04:08.332Z,19.90
2022-08-29T17:06:35.559Z,19.90
2022-08-29T17:09:07.852Z,19.90
2022-08-29T17:11:36.733Z,19.90
2022-08-29T17:14:04.465Z,19.90
2022-08-29T17:16:31.741Z,19.80
2022-08-29T17:18:59.889Z,19.80
2022-08-29T17:21:27.218Z,19.80
2022-08-29T17:23:59.492Z,19.70
2022-08-29T17:26:26.775Z,19.70
2022-08-29T17:28:53.689Z,19.70
2022-08-29T17:31:20.850Z,19.60
2022-08-29T17:33:48.033Z,19.60
2022-08-29T17:36:16.923Z,19.50
2022-08-29T17:38:46.852Z,19.50
2022-08-29T17:41:17.668Z,19.50
2022-08-29T17:43:47.338Z,19.50
2022-08-29T17:46:16.819Z,19.50
2022-08-29T17:48:44.001Z,19.50
2022-08-29T17:51:12.180Z,19.50
2022-08-29T17:53:40.335Z,19.40
2022-08-29T17:56:29.488Z,19.40
2022-08-29T17:58:57.493Z,19.30
2022-08-29T18:01:24.673Z,19.30
2022-08-29T18:03:51.985Z,19.30
2022-08-29T18:06:19.290Z,19.20
2022-08-29T18:08:48.501Z,19.20
2022-08-29T18:11:17.257Z,19.20
2022-08-29T18:13:44.897Z,19.20
2022-08-29T18:16:12.956Z,19.10
2022-08-29T18:18:41.286Z,19.10
2022-08-29T18:21:09.139Z,19.00
2022-08-29T18:23:37.591Z,19.00
2022-08-29T18:26:06.306Z,18.90
2022-08-29T18:28:34.532Z,18.80
2022-08-29T18:31:03.316Z,18.80
2022-08-29T18:33:44.217Z,18.90
2022-08-29T18:36:17.755Z,18.80
2022-08-29T18:38:45.627Z,18.80
2022-08-29T18:41:13.456Z,18.70
2022-08-29T18:43:40.493Z,18.70
2022-08-29T18:46:12.290Z,18.60
2022-08-29T18:48:46.728Z,18.60
2022-08-29T18:51:15.220Z,18.50
2022-08-29T18:53:43.027Z,18.50
2022-08-29T18:56:10.113Z,18.40
2022-08-29T18:58:38.262Z,18.30
2022-08-29T19:01:27.932Z,18.30
2022-08-29T19:04:00.239Z,18.20
2022-08-29T19:06:27.943Z,18.20
2022-08-29T19:08:56.514Z,18.10
2022-08-29T19:11:24.514Z,18.00
2022-08-29T19:13:52.247Z,18.00
2022-08-29T19:16:21.038Z,17.90
2022-08-29T19:18:48.480Z,17.80
2022-08-29T19:21:15.647Z,17.70
2022-08-29T19:23:45.969Z,17.70
2022-08-29T19:26:28.527Z,17.60
2022-08-29T19:28:59.031Z,17.60
2022-08-29T19:31:27.645Z,17.60
2022-08-29T19:33:55.058Z,17.50
2022-08-29T19:36:24.860Z,17.40
2022-08-29T19:38:51.887Z,17.40
2022-08-29T19:41:19.260Z,17.40
2022-08-29T19:43:46.159Z,17.30
2022-08-29T19:46:17.932Z,17.30
2022-08-29T19:48:48.624Z,17.30
2022-08-29T19:51:21.041Z,17.20
2022-08-29T19:53:48.831Z,17.10
2022-08-29T19:56:17.202Z,17.10
2022-08-29T19:58:44.341Z,17.00
2022-08-29T20:01:11.654Z,16.90
2022-08-29T20:03:41.028Z,16.90
2022-08-29T20:06:09.205Z,16.80
2022-08-29T20:08:46.094Z,16.80
2022-08-29T20:11:21.062Z,16.70
2022-08-29T20:13:51.063Z,16.70
2022-08-29T20:16:21.594Z,16.70
2022-08-29T20:18:52.257Z,16.60
2022-08-29T20:21:20.896Z,16.50
2022-08-29T20:23:54.719Z,16.50
2022-08-29T20:26:25.465Z,16.50
2022-08-29T20:28:54.097Z,16.50
2022-08-29T20:31:21.976Z,16.40
2022-08-29T20:33:49.123Z,16.40
2022-08-29T20:36:39.240Z,16.40
2022-08-29T20:39:11.300Z,16.40
2022-08-29T20:41:38.369Z,16.40
2022-08-29T20:44:10.175Z,16.30
2022-08-29T20:46:40.411Z,16.30
2022-08-29T20:49:12.466Z,16.20
2022-08-29T20:51:43.261Z,16.20
2022-08-29T20:54:14.932Z,16.20
2022-08-29T20:56:42.399Z,16.20
2022-08-29T20:59:10.382Z,16.20
2022-08-29T21:01:38.741Z,16.10
2022-08-29T21:04:26.636Z,16.10
2022-08-29T21:06:54.813Z,16.10
2022-08-29T21:09:22.594Z,16.10
2022-08-29T21:11:50.300Z,16.10
2022-08-29T21:14:17.658Z,16.00
2022-08-29T21:16:44.872Z,16.00
2022-08-29T21:19:12.698Z,15.90
2022-08-29T21:21:40.790Z,15.90
2022-08-29T21:24:10.478Z,15.80
2022-08-29T21:26:38.601Z,15.80
2022-08-29T21:29:07.365Z,15.80
2022-08-29T21:31:35.078Z,15.80
2022-08-29T21:34:06.371Z,15.80
2022-08-29T21:36:36.109Z,15.80
2022-08-29T21:39:05.256Z,15.70
2022-08-29T21:41:33.532Z,15.70
2022-08-29T21:44:00.424Z,15.70
2022-08-29T21:46:30.500Z,15.70
2022-08-29T21:49:00.186Z,15.70
2022-08-29T21:51:29.706Z,15.70
2022-08-29T21:53:57.809Z,15.60
2022-08-29T21:56:27.750Z,15.60
2022-08-29T21:58:56.152Z,15.60
2022-08-29T22:01:27.231Z,15.50
2022-08-29T22:03:54.855Z,15.50
2022-08-29T22:06:22.541Z,15.50
2022-08-29T22:08:49.561Z,15.50
2022-08-29T22:11:37.491Z,15.50
2022-08-29T22:14:07.592Z,15.50
2022-08-29T22:16:37.021Z,15.40
2022-08-29T22:19:06.613Z,15.40
2022-08-29T22:21:37.918Z,15.40
2022-08-29T22:24:06.911Z,15.40
2022-08-29T22:26:35.417Z,15.40
2022-08-29T22:29:02.690Z,15.40
2022-08-29T22:31:31.326Z,15.30
2022-08-29T22:33:59.910Z,15.30
2022-08-29T22:36:27.130Z,15.30
2022-08-29T22:38:56.521Z,15.30
2022-08-29T22:41:25.391Z,15.20
2022-08-29T22:44:31.696Z,15.20
2022-08-29T22:46:44.496Z,15.20
2022-08-29T22:49:11.675Z,15.20
2022-08-29T22:51:38.577Z,15.20
2022-08-29T22:54:24.405Z,15.20
2022-08-29T22:56:54.491Z,15.20
2022-08-29T22:59:23.741Z,15.20
2022-08-29T23:01:50.666Z,15.20
2022-08-29T23:04:19.090Z,15.20
2022-08-29T23:06:46.471Z,15.20
2022-08-29T23:09:13.572Z,15.20
2022-08-29T23:11:40.806Z,15.20
2022-08-29T23:14:08.424Z,15.20
2022-08-29T23:16:40.152Z,15.20
2022-08-29T23:19:07.212Z,15.10
2022-08-29T23:21:34.820Z,15.10
2022-08-29T23:24:07.615Z,15.10
2022-08-29T23:26:34.847Z,15.10
2022-08-29T23:29:01.916Z,15.00
2022-08-29T23:31:28.974Z,15.00
2022-08-29T23:33:55.945Z,15.00
2022-08-29T23:36:23.357Z,15.00
2022-08-29T23:38:52.769Z,14.90
2022-08-29T23:41:19.896Z,14.90
2022-08-29T23:43:46.769Z,15.00
2022-08-29T23:46:14.889Z,15.00
2022-08-29T23:48:41.824Z,15.00
2022-08-29T23:51:10.325Z,15.00
2022-08-29T23:53:38.211Z,15.00
2022-08-29T23:56:09.877Z,15.00
2022-08-29T23:58:37.024Z,15.00
